Time;durP1;ratioP1;P1;durP2;ratioP2;P2;SDS_P1;SDS_P2;PMS_P1;PMS_P2;Temp;Humidity;BMP_temperature;BMP_pressure;BME280_temperature;BME280_humidity;BME280_pressure;Samples;Min_cycle;Max_cycle;Signal;HPM_P1;HPM_P2
2022/07/08 00:01:35;;;;;;;2.17;2.08;;;21.50;78.80;;;;;;5101348;28;20484;-59
2022/07/08 00:04:01;;;;;;;2.30;2.10;;;21.50;78.90;;;;;;5101328;28;20066;-59
2022/07/08 00:06:26;;;;;;;3.33;2.38;;;21.50;78.70;;;;;;5102999;28;20035;-59
2022/07/08 00:08:52;;;;;;;2.22;2.10;;;21.50;78.80;;;;;;5103945;28;20024;-59
2022/07/08 00:11:18;;;;;;;2.25;2.15;;;21.50;78.90;;;;;;5099732;28;20038;-59
2022/07/08 00:13:43;;;;;;;2.38;2.17;;;21.50;78.90;;;;;;5100152;28;20394;-59
2022/07/08 00:16:09;;;;;;;1.98;1.88;;;21.50;78.90;;;;;;5098076;28;20076;-59
2022/07/08 00:18:35;;;;;;;2.00;1.80;;;21.50;78.90;;;;;;5105746;28;20023;-59
2022/07/08 00:21:00;;;;;;;2.10;2.00;;;21.50;79.50;;;;;;5097264;28;20598;-59
2022/07/08 00:23:26;;;;;;;2.20;2.10;;;21.50;78.80;;;;;;5102015;28;20416;-59
2022/07/08 00:25:52;;;;;;;1.83;1.73;;;21.50;78.80;;;;;;5101596;28;20036;-58
2022/07/08 00:28:18;;;;;;;2.08;1.98;;;21.50;79.50;;;;;;5094323;28;20369;-59
2022/07/08 00:30:43;;;;;;;2.30;2.13;;;21.50;78.80;;;;;;5102651;28;20085;-59
2022/07/08 00:33:09;;;;;;;2.08;1.98;;;21.50;78.80;;;;;;5099220;28;20064;-59
2022/07/08 00:35:35;;;;;;;2.35;2.15;;;21.40;78.80;;;;;;5106303;28;20031;-59
2022/07/08 00:38:01;;;;;;;1.77;1.67;;;21.50;78.80;;;;;;5096624;28;20126;-59
2022/07/08 00:40:26;;;;;;;2.05;1.95;;;21.50;78.90;;;;;;5100061;28;20077;-59
2022/07/08 00:42:53;;;;;;;1.92;1.83;;;21.50;79.00;;;;;;5104985;28;20106;-59
2022/07/08 00:45:19;;;;;;;2.30;2.03;;;21.40;78.80;;;;;;5094284;28;20069;-59
2022/07/08 00:47:45;;;;;;;2.05;1.95;;;21.50;79.00;;;;;;5106667;28;20039;-59
2022/07/08 00:50:11;;;;;;;2.00;1.90;;;21.40;79.00;;;;;;5094864;28;20380;-58
2022/07/08 00:52:39;;;;;;;1.83;1.73;;;21.40;78.90;;;;;;5101837;28;20055;-59
2022/07/08 00:55:06;;;;;;;1.95;1.85;;;21.50;79.10;;;;;;5095963;28;20027;-59
2022/07/08 00:57:35;;;;;;;2.50;2.10;;;21.40;79.00;;;;;;5108102;28;20034;-59
2022/07/08 01:00:01;;;;;;;1.98;1.88;;;21.40;79.20;;;;;;5103533;28;20046;-59
2022/07/08 01:02:27;;;;;;;1.95;1.85;;;21.40;79.20;;;;;;5101343;28;20474;-58
2022/07/08 01:04:52;;;;;;;1.75;1.65;;;21.40;79.20;;;;;;5109945;28;20103;-59
2022/07/08 01:07:18;;;;;;;2.25;2.15;;;21.40;79.20;;;;;;5098677;28;20058;-59
2022/07/08 01:09:44;;;;;;;1.83;1.73;;;21.40;79.30;;;;;;5099483;27;20048;-59
2022/07/08 01:12:10;;;;;;;2.08;1.98;;;21.40;79.40;;;;;;5094759;28;20101;-59
2022/07/08 01:14:37;;;;;;;1.70;1.60;;;21.40;79.40;;;;;;5097420;28;20089;-59
2022/07/08 01:17:03;;;;;;;1.95;1.85;;;21.50;79.50;;;;;;5096365;28;20036;-59
2022/07/08 01:19:29;;;;;;;1.98;1.88;;;21.40;79.40;;;;;;5106234;28;20016;-59
2022/07/08 01:21:55;;;;;;;1.95;1.85;;;21.40;79.30;;;;;;5098716;28;20027;-59
2022/07/08 01:24:21;;;;;;;1.90;1.80;;;21.40;79.50;;;;;;5101959;28;20034;-59
2022/07/08 01:26:47;;;;;;;2.08;1.92;;;21.40;79.60;;;;;;5095554;28;20024;-58
2022/07/08 01:29:14;;;;;;;1.88;1.77;;;21.50;79.70;;;;;;5107290;28;20046;-59
2022/07/08 01:31:40;;;;;;;1.85;1.75;;;21.40;79.90;;;;;;5096311;28;20028;-59
2022/07/08 01:34:05;;;;;;;1.92;1.83;;;21.40;79.90;;;;;;5098862;28;20540;-59
2022/07/08 01:36:31;;;;;;;1.95;1.85;;;21.40;79.80;;;;;;5099034;28;20020;-59
2022/07/08 01:38:57;;;;;;;2.00;1.90;;;21.40;79.90;;;;;;5101125;28;20028;-58
2022/07/08 01:41:22;;;;;;;2.28;2.10;;;21.40;79.70;;;;;;5101340;28;20035;-59
2022/07/08 01:43:48;;;;;;;1.95;1.85;;;21.40;79.70;;;;;;5101828;28;20020;-59
2022/07/08 01:46:14;;;;;;;2.00;1.90;;;21.40;79.70;;;;;;5094848;27;20066;-59
2022/07/08 01:48:40;;;;;;;1.80;1.70;;;21.40;79.80;;;;;;5098304;27;20063;-59
2022/07/08 01:51:05;;;;;;;1.98;1.83;;;21.30;80.00;;;;;;5098098;28;20028;-59
2022/07/08 01:53:31;;;;;;;1.90;1.80;;;21.30;79.80;;;;;;5106481;28;20024;-59
2022/07/08 01:55:57;;;;;;;1.95;1.85;;;21.30;80.50;;;;;;5101378;28;20016;-58
2022/07/08 01:58:22;;;;;;;1.65;1.55;;;21.30;80.10;;;;;;5102200;28;20498;-59
2022/07/08 02:00:48;;;;;;;1.80;1.70;;;21.30;80.20;;;;;;5107257;28;20024;-59
2022/07/08 02:03:14;;;;;;;1.98;1.88;;;21.30;80.20;;;;;;5096195;28;20031;-59
2022/07/08 02:05:40;;;;;;;1.98;1.88;;;21.30;80.30;;;;;;5092382;28;20069;-59
2022/07/08 02:08:05;;;;;;;2.05;1.95;;;21.30;80.20;;;;;;5100476;28;20031;-59
2022/07/08 02:13:16;;;;;;;2.20;2.10;;;21.20;80.20;;;;;;5101816;28;20031;-59
2022/07/08 02:15:43;;;;;;;1.60;1.50;;;21.20;80.10;;;;;;5107416;28;20039;-59
2022/07/08 02:18:08;;;;;;;1.80;1.70;;;21.20;80.00;;;;;;5111531;28;20528;-59
2022/07/08 02:20:34;;;;;;;1.80;1.70;;;21.20;80.20;;;;;;5111675;28;20016;-59
2022/07/08 02:23:00;;;;;;;1.63;1.60;;;21.20;80.10;;;;;;5097577;27;20118;-59
2022/07/08 02:25:26;;;;;;;1.75;1.65;;;21.20;80.20;;;;;;5105388;28;20032;-59
2022/07/08 02:27:51;;;;;;;1.75;1.65;;;21.20;80.20;;;;;;5120535;27;20039;-59
2022/07/08 02:30:17;;;;;;;1.88;1.77;;;21.20;80.30;;;;;;5109479;28;20031;-59
2022/07/08 02:32:42;;;;;;;1.80;1.70;;;21.20;80.20;;;;;;5105857;27;20028;-59
2022/07/08 02:35:08;;;;;;;1.92;1.75;;;21.20;80.10;;;;;;5107881;28;20023;-59
2022/07/08 02:37:34;;;;;;;1.77;1.67;;;21.30;80.20;;;;;;5110682;28;20532;-59
2022/07/08 02:40:00;;;;;;;1.88;1.77;;;21.30;80.20;;;;;;5102522;28;20035;-59
2022/07/08 02:42:26;;;;;;;1.75;1.65;;;21.30;80.20;;;;;;5104644;28;20463;-59
2022/07/08 02:44:51;;;;;;;2.42;1.83;;;21.30;80.00;;;;;;5109570;27;20095;-59
2022/07/08 02:47:17;;;;;;;2.05;1.92;;;21.30;79.90;;;;;;5102641;28;20039;-59
2022/07/08 02:49:42;;;;;;;1.88;1.77;;;21.30;79.90;;;;;;5111523;27;20100;-59
2022/07/08 02:52:08;;;;;;;1.30;1.30;;;21.30;79.90;;;;;;5104243;28;20028;-58
2022/07/08 02:54:34;;;;;;;1.90;1.80;;;21.30;79.90;;;;;;5095419;28;20028;-59
2022/07/08 02:56:59;;;;;;;1.55;1.45;;;21.30;79.80;;;;;;5094602;28;20039;-59
2022/07/08 02:59:25;;;;;;;1.80;1.70;;;21.40;79.70;;;;;;5105303;28;20478;-58
2022/07/08 03:01:51;;;;;;;1.90;1.80;;;21.40;79.80;;;;;;5110447;28;20024;-59
2022/07/08 03:04:16;;;;;;;2.05;1.95;;;21.40;79.80;;;;;;5103219;27;20035;-59
2022/07/08 03:06:42;;;;;;;1.92;1.83;;;21.40;79.50;;;;;;5111299;28;20150;-59
2022/07/08 03:09:08;;;;;;;1.85;1.75;;;21.40;79.50;;;;;;5109318;27;20055;-59
2022/07/08 03:11:33;;;;;;;1.80;1.70;;;21.40;79.40;;;;;;5117166;27;20111;-59
2022/07/08 03:13:59;;;;;;;1.88;1.77;;;21.40;79.30;;;;;;5100737;27;20028;-59
2022/07/08 03:16:25;;;;;;;1.67;1.60;;;21.50;79.80;;;;;;5109874;28;20020;-59
2022/07/08 03:18:50;;;;;;;1.80;1.70;;;21.50;79.30;;;;;;5108710;28;20081;-59
2022/07/08 03:21:16;;;;;;;1.98;1.88;;;21.50;79.10;;;;;;5104699;27;20051;-59
2022/07/08 03:23:42;;;;;;;2.17;2.05;;;21.50;79.20;;;;;;5102723;28;20037;-59
2022/07/08 03:26:07;;;;;;;1.88;1.77;;;21.60;79.30;;;;;;5102041;28;20031;-59
2022/07/08 03:28:33;;;;;;;2.08;1.98;;;21.60;79.40;;;;;;5110644;28;20019;-58
2022/07/08 03:30:59;;;;;;;2.17;1.92;;;21.60;79.60;;;;;;5101908;27;20024;-59
2022/07/08 03:33:24;;;;;;;1.67;1.58;;;21.70;79.70;;;;;;5108173;28;20080;-59
2022/07/08 03:35:50;;;;;;;2.17;1.98;;;21.90;80.00;;;;;;5112281;28;20084;-59
2022/07/08 03:38:16;;;;;;;1.80;1.70;;;22.00;80.40;;;;;;5110646;28;20080;-58
2022/07/08 03:43:27;;;;;;;1.58;1.48;;;22.50;80.30;;;;;;5103907;28;20027;-59
2022/07/08 03:45:52;;;;;;;1.80;1.70;;;22.80;79.90;;;;;;5103409;28;20104;-59
2022/07/08 03:48:18;;;;;;;1.42;1.33;;;23.20;80.00;;;;;;5107592;28;20032;-58
2022/07/08 03:50:44;;;;;;;1.65;1.55;;;23.70;79.30;;;;;;5106657;28;20034;-59
2022/07/08 03:53:09;;;;;;;1.50;1.40;;;24.30;78.10;;;;;;5108499;28;20023;-59
2022/07/08 03:55:35;;;;;;;1.67;1.58;;;25.00;76.90;;;;;;5097813;28;20030;-59
2022/07/08 03:58:00;;;;;;;1.33;1.27;;;25.70;75.50;;;;;;5104727;28;20028;-58
2022/07/08 04:00:26;;;;;;;1.05;1.05;;;26.40;74.20;;;;;;5110537;28;20020;-58
2022/07/08 04:02:52;;;;;;;1.20;1.20;;;27.00;72.90;;;;;;5110366;28;20060;-58
2022/07/08 04:05:18;;;;;;;1.33;1.33;;;27.70;71.30;;;;;;5111756;28;20038;-58
2022/07/08 04:07:43;;;;;;;1.98;1.23;;;28.30;70.10;;;;;;5099759;28;20031;-58
2022/07/08 04:10:09;;;;;;;1.20;1.20;;;28.80;68.60;;;;;;5110453;27;20094;-58
2022/07/08 04:12:35;;;;;;;1.15;1.15;;;29.30;67.50;;;;;;5104844;28;20118;-59
2022/07/08 04:15:00;;;;;;;1.45;1.40;;;29.80;66.60;;;;;;5107768;28;20035;-59
2022/07/08 04:17:26;;;;;;;1.25;1.25;;;30.20;65.40;;;;;;5107976;28;20031;-59
2022/07/08 04:19:52;;;;;;;1.23;1.23;;;30.70;64.50;;;;;;5106483;28;20120;-59
2022/07/08 04:22:18;;;;;;;1.38;1.30;;;31.00;63.60;;;;;;5107946;28;20495;-60
2022/07/08 04:24:44;;;;;;;1.50;1.40;;;31.40;63.00;;;;;;5112980;28;20030;-59
2022/07/08 04:27:10;;;;;;;1.40;1.30;;;31.80;62.10;;;;;;5108211;28;20027;-61
2022/07/08 04:29:36;;;;;;;1.17;1.17;;;32.10;61.30;;;;;;5097326;28;20020;-60
2022/07/08 04:32:01;;;;;;;1.50;1.40;;;32.40;60.50;;;;;;5094140;28;20111;-60
2022/07/08 04:34:27;;;;;;;1.73;1.60;;;32.70;59.80;;;;;;5094260;28;20031;-60
2022/07/08 04:36:53;;;;;;;1.38;1.27;;;33.00;59.20;;;;;;5097243;28;20024;-60
2022/07/08 04:42:41;;;;;;;1.35;1.27;;;33.40;57.20;;;;;;5109726;28;20559;-59
2022/07/08 04:45:07;;;;;;;0.90;0.90;;;33.70;57.80;;;;;;5100635;28;20028;-60
2022/07/08 04:47:33;;;;;;;1.58;1.48;;;33.90;57.30;;;;;;5102433;28;20084;-60
2022/07/08 04:49:59;;;;;;;1.35;1.25;;;34.10;56.70;;;;;;5108372;28;20531;-59
2022/07/08 04:52:25;;;;;;;1.23;1.15;;;34.30;56.50;;;;;;5104249;28;20080;-60
2022/07/08 04:54:51;;;;;;;1.60;1.50;;;34.50;56.00;;;;;;5101292;28;20376;-60
2022/07/08 04:57:16;;;;;;;1.55;1.45;;;34.70;55.50;;;;;;5099615;28;20031;-59
2022/07/08 04:59:42;;;;;;;1.52;1.38;;;34.80;54.80;;;;;;5109021;28;20020;-59
2022/07/08 05:02:08;;;;;;;1.63;1.40;;;34.90;54.40;;;;;;5108516;28;20144;-60
2022/07/08 05:04:33;;;;;;;1.27;1.17;;;35.00;54.10;;;;;;5100264;28;20122;-60
2022/07/08 05:06:59;;;;;;;1.23;1.20;;;35.10;53.90;;;;;;5110126;28;20023;-59
2022/07/08 05:09:25;;;;;;;1.50;1.40;;;35.20;53.30;;;;;;5102066;28;20062;-60
2022/07/08 05:11:51;;;;;;;1.35;1.25;;;35.40;53.10;;;;;;5108042;28;20051;-59
2022/07/08 05:14:16;;;;;;;1.40;1.23;;;35.40;52.60;;;;;;5108875;28;20038;-59
2022/07/08 05:16:43;;;;;;;1.05;1.05;;;35.30;52.30;;;;;;5106134;28;20494;-60
2022/07/08 05:19:10;;;;;;;1.50;1.40;;;35.10;52.20;;;;;;5102897;28;20024;-59
2022/07/08 05:21:38;;;;;;;1.35;1.25;;;35.00;52.30;;;;;;5111130;27;20525;-60
2022/07/08 05:24:05;;;;;;;1.25;1.25;;;34.90;52.00;;;;;;5108048;27;20027;-60
2022/07/08 05:26:31;;;;;;;1.67;1.58;;;34.90;51.30;;;;;;5108566;28;21429;-60
2022/07/08 05:28:57;;;;;;;1.48;1.38;;;34.80;50.90;;;;;;5103110;27;20028;-60
2022/07/08 05:31:22;;;;;;;1.52;1.42;;;34.50;50.80;;;;;;5099799;27;20505;-60
2022/07/08 05:33:48;;;;;;;1.60;1.50;;;34.00;51.00;;;;;;5116400;27;20383;-60
2022/07/08 05:36:14;;;;;;;1.65;1.55;;;33.30;51.60;;;;;;5114867;27;20039;-60
2022/07/08 05:38:39;;;;;;;1.58;1.50;;;32.70;52.30;;;;;;5107215;27;20065;-60
2022/07/08 05:41:05;;;;;;;1.77;1.67;;;32.00;52.80;;;;;;5101294;27;20023;-60
2022/07/08 05:43:30;;;;;;;1.55;1.45;;;31.40;53.50;;;;;;5102772;27;20055;-60
2022/07/08 05:45:56;;;;;;;1.50;1.40;;;30.90;54.10;;;;;;5094087;27;20490;-59
2022/07/08 05:48:22;;;;;;;1.70;1.60;;;30.30;54.60;;;;;;5102199;27;20048;-60
2022/07/08 05:50:48;;;;;;;2.10;1.20;;;29.90;55.20;;;;;;5098150;27;20488;-59
2022/07/08 05:53:17;;;;;;;1.60;1.50;;;29.50;55.60;;;;;;5099776;27;20067;-60
2022/07/08 05:55:45;;;;;;;1.90;1.80;;;29.20;56.10;;;;;;5102571;27;20478;-60
2022/07/08 05:58:11;;;;;;;1.65;1.55;;;28.80;56.40;;;;;;5100047;28;20068;-60
2022/07/08 06:00:37;;;;;;;2.17;1.88;;;28.50;56.70;;;;;;5091777;27;20099;-60
2022/07/08 06:03:04;;;;;;;1.58;1.48;;;28.20;57.10;;;;;;5093994;27;20547;-60
2022/07/08 06:05:31;;;;;;;1.63;1.52;;;27.90;57.60;;;;;;5094007;27;20152;-60
2022/07/08 06:07:57;;;;;;;1.65;1.55;;;27.70;57.90;;;;;;5093090;27;20032;-59
2022/07/08 06:10:22;;;;;;;1.83;1.73;;;27.50;58.30;;;;;;5100133;27;20028;-60
2022/07/08 06:12:49;;;;;;;1.70;1.60;;;27.30;58.80;;;;;;5090839;27;20429;-60
2022/07/08 06:15:14;;;;;;;2.00;1.88;;;27.20;59.10;;;;;;5096654;27;20015;-60
2022/07/08 06:17:41;;;;;;;2.03;1.83;;;27.00;59.10;;;;;;5080094;28;20510;-60
2022/07/08 06:20:07;;;;;;;2.00;1.90;;;26.90;59.60;;;;;;5093701;27;20088;-60
2022/07/08 06:22:33;;;;;;;1.73;1.63;;;26.80;59.80;;;;;;5087416;27;20039;-60
2022/07/08 06:24:59;;;;;;;1.65;1.55;;;26.70;60.20;;;;;;5093973;28;20028;-60
2022/07/08 06:27:25;;;;;;;2.05;1.92;;;26.70;60.30;;;;;;5091627;27;20032;-59
2022/07/08 06:29:51;;;;;;;2.30;2.10;;;26.60;60.30;;;;;;5091971;27;20103;-60
2022/07/08 06:32:17;;;;;;;1.90;1.80;;;26.50;60.50;;;;;;5099802;27;20538;-60
2022/07/08 06:34:46;;;;;;;2.00;1.90;;;26.50;60.70;;;;;;5089108;27;20035;-60
2022/07/08 06:37:11;;;;;;;3.30;2.17;;;26.40;60.90;;;;;;5084017;28;20028;-59
2022/07/08 06:39:37;;;;;;;2.28;2.15;;;26.40;61.00;;;;;;5073967;27;21100;-59
2022/07/08 06:42:03;;;;;;;1.90;1.80;;;26.40;61.10;;;;;;5083077;27;20395;-59
2022/07/08 06:44:29;;;;;;;2.20;2.00;;;26.50;61.10;;;;;;5092610;27;21318;-60
2022/07/08 06:46:54;;;;;;;2.47;2.28;;;26.50;61.10;;;;;;5093930;27;20038;-59
2022/07/08 06:49:20;;;;;;;2.20;2.00;;;26.50;61.00;;;;;;5082734;27;20035;-59
2022/07/08 06:51:46;;;;;;;2.50;2.30;;;26.40;61.00;;;;;;5083156;27;20042;-59
2022/07/08 06:56:56;;;;;;;2.13;2.03;;;26.30;61.40;;;;;;5080995;28;20480;-60
2022/07/08 06:59:23;;;;;;;2.38;2.17;;;26.20;61.40;;;;;;5076475;28;20052;-60
2022/07/08 07:01:48;;;;;;;2.67;2.47;;;26.10;61.80;;;;;;5074762;28;20024;-60
2022/07/08 07:04:15;;;;;;;2.00;1.90;;;26.00;62.10;;;;;;5072675;28;20036;-59
2022/07/08 07:06:40;;;;;;;2.47;2.28;;;26.00;62.30;;;;;;5076995;27;20046;-59
2022/07/08 07:09:06;;;;;;;2.58;2.38;;;26.00;62.60;;;;;;5074127;27;23041;-58
2022/07/08 07:11:32;;;;;;;2.22;2.03;;;26.00;62.60;;;;;;5061223;27;20035;-58
2022/07/08 07:13:57;;;;;;;2.70;2.50;;;26.00;62.60;;;;;;5085610;27;20039;-59
2022/07/08 07:16:23;;;;;;;2.38;2.17;;;26.00;62.90;;;;;;5084431;27;20457;-58
2022/07/08 07:18:49;;;;;;;2.67;2.47;;;25.90;62.90;;;;;;5075499;27;20122;-59
2022/07/08 07:21:14;;;;;;;2.10;2.00;;;25.90;62.90;;;;;;5081608;27;20033;-58
2022/07/08 07:23:40;;;;;;;2.50;2.30;;;25.90;62.90;;;;;;5083495;27;20023;-59
2022/07/08 07:26:06;;;;;;;2.08;1.98;;;25.90;63.10;;;;;;5076395;27;20031;-59
2022/07/08 07:28:33;;;;;;;2.40;2.20;;;25.80;63.30;;;;;;5084396;27;20059;-59
2022/07/08 07:30:59;;;;;;;2.20;2.10;;;25.80;63.40;;;;;;5084649;27;20106;-58
2022/07/08 07:33:25;;;;;;;2.05;1.85;;;25.80;63.60;;;;;;5079745;28;20098;-58
2022/07/08 07:35:51;;;;;;;2.20;2.10;;;25.80;63.70;;;;;;5084992;27;20023;-59
2022/07/08 07:38:16;;;;;;;2.22;2.03;;;25.70;63.80;;;;;;5082618;27;20065;-59
2022/07/08 07:40:42;;;;;;;1.85;1.75;;;25.80;64.00;;;;;;5085330;27;20033;-59
2022/07/08 07:43:08;;;;;;;2.13;2.03;;;25.70;64.00;;;;;;5083940;27;20114;-58
2022/07/08 07:45:35;;;;;;;2.78;2.50;;;25.80;64.20;;;;;;5082819;28;20086;-59
2022/07/08 07:48:01;;;;;;;2.65;2.45;;;25.80;64.60;;;;;;5083959;27;20426;-59
2022/07/08 07:50:27;;;;;;;2.58;2.38;;;25.80;64.70;;;;;;5079633;27;20040;-59
2022/07/08 07:52:53;;;;;;;2.75;2.55;;;25.80;64.50;;;;;;5052878;28;20190;-58
2022/07/08 07:55:19;;;;;;;2.50;2.30;;;25.90;64.30;;;;;;5069062;28;20030;-59
2022/07/08 07:57:47;;;;;;;2.90;2.60;;;25.90;64.40;;;;;;5075680;27;20028;-59
2022/07/08 08:00:15;;;;;;;3.42;2.60;;;26.00;64.60;;;;;;5071352;27;20046;-59
2022/07/08 08:02:41;;;;;;;2.38;2.17;;;26.00;64.70;;;;;;5078191;27;20077;-59
2022/07/08 08:05:08;;;;;;;2.45;2.25;;;26.00;64.80;;;;;;5083258;27;20023;-58
2022/07/08 08:07:35;;;;;;;3.47;2.70;;;26.00;64.70;;;;;;5083722;28;20028;-59
2022/07/08 08:10:01;;;;;;;2.45;2.25;;;26.00;64.60;;;;;;5077777;28;20058;-59
2022/07/08 08:12:27;;;;;;;2.30;2.20;;;26.00;64.80;;;;;;5076414;27;20480;-58
2022/07/08 08:14:53;;;;;;;2.30;2.13;;;26.10;64.60;;;;;;5082892;27;20034;-58
2022/07/08 08:17:18;;;;;;;2.47;2.28;;;26.20;64.40;;;;;;5075736;28;20023;-58
2022/07/08 08:19:44;;;;;;;2.58;2.20;;;26.10;64.50;;;;;;5068616;28;20058;-59
2022/07/08 08:22:09;;;;;;;2.95;2.40;;;26.20;64.50;;;;;;5065311;28;20028;-59
2022/07/08 08:24:35;;;;;;;2.60;2.40;;;26.20;64.30;;;;;;5070209;28;20034;-59
2022/07/08 08:27:01;;;;;;;2.97;2.60;;;26.20;64.40;;;;;;5063141;28;20414;-59
2022/07/08 08:29:26;;;;;;;3.08;2.78;;;26.30;64.50;;;;;;5067394;28;20039;-59
2022/07/08 08:31:52;;;;;;;3.13;2.40;;;26.30;65.20;;;;;;5067402;28;20178;-58
2022/07/08 08:34:18;;;;;;;2.92;2.50;;;26.30;64.30;;;;;;5056192;28;20032;-59
2022/07/08 08:36:43;;;;;;;2.75;2.50;;;26.40;64.40;;;;;;5075150;28;20568;-59
2022/07/08 08:39:09;;;;;;;2.63;2.40;;;26.40;64.50;;;;;;5078417;28;20023;-59
2022/07/08 08:41:35;;;;;;;2.97;2.67;;;26.50;64.50;;;;;;5078306;28;20818;-59
2022/07/08 08:44:01;;;;;;;2.80;2.50;;;26.50;64.60;;;;;;5078928;28;20113;-59
2022/07/08 08:46:28;;;;;;;2.40;2.20;;;26.60;64.70;;;;;;5078916;28;20050;-59
2022/07/08 08:48:57;;;;;;;2.58;2.38;;;26.60;64.70;;;;;;5079769;28;20514;-59
2022/07/08 08:51:23;;;;;;;2.85;2.53;;;26.60;64.60;;;;;;5077188;28;20488;-59
2022/07/08 08:53:52;;;;;;;2.97;2.67;;;26.60;64.80;;;;;;5078163;28;20047;-59
2022/07/08 08:56:18;;;;;;;2.58;2.35;;;26.60;64.50;;;;;;5079877;28;20039;-60
2022/07/08 08:58:48;;;;;;;2.60;2.40;;;26.60;64.70;;;;;;5084279;27;20971;-59
2022/07/08 09:01:15;;;;;;;2.58;2.38;;;26.50;64.80;;;;;;5074645;27;20028;-59
2022/07/08 09:03:41;;;;;;;2.70;2.50;;;26.50;65.10;;;;;;5078029;27;20121;-59
2022/07/08 09:06:07;;;;;;;2.60;2.40;;;26.50;64.80;;;;;;5079238;27;20043;-59
2022/07/08 09:08:33;;;;;;;2.45;2.25;;;26.60;64.90;;;;;;5077157;27;20115;-59
2022/07/08 09:11:00;;;;;;;3.08;2.70;;;26.60;64.60;;;;;;5080692;27;20039;-59
2022/07/08 09:13:26;;;;;;;2.70;2.50;;;26.50;64.60;;;;;;5076363;27;20035;-60
2022/07/08 09:15:58;;;;;;;2.47;2.28;;;26.50;64.20;;;;;;5083337;27;20526;-59
2022/07/08 09:18:29;;;;;;;2.60;2.40;;;26.50;64.20;;;;;;5084351;27;20034;-59
2022/07/08 09:20:56;;;;;;;2.30;2.10;;;26.50;64.20;;;;;;5075268;28;20035;-59
2022/07/08 09:23:24;;;;;;;2.63;2.30;;;26.50;63.90;;;;;;5065276;27;20172;-59
2022/07/08 09:26:04;;;;;;;2.53;2.33;;;26.50;63.80;;;;;;5081537;27;20128;-59
2022/07/08 09:28:37;;;;;;;3.10;2.40;;;26.50;63.90;;;;;;5079775;27;20038;-59
2022/07/08 09:31:12;;;;;;;2.70;2.50;;;26.50;63.90;;;;;;5082411;27;20032;-59
2022/07/08 09:33:38;;;;;;;2.80;2.60;;;26.50;63.90;;;;;;5082362;27;20032;-59
2022/07/08 09:36:05;;;;;;;3.05;2.75;;;26.50;63.80;;;;;;5078714;27;20570;-59
2022/07/08 09:38:35;;;;;;;2.53;2.30;;;26.50;63.60;;;;;;5075745;27;20047;-56
2022/07/08 09:41:06;;;;;;;2.63;2.42;;;26.50;63.60;;;;;;5079660;27;20035;-59
2022/07/08 09:43:36;;;;;;;3.38;3.03;;;26.50;63.60;;;;;;5085628;27;20028;-59
2022/07/08 09:46:06;;;;;;;3.65;2.83;;;26.50;63.60;;;;;;5082500;27;20031;-59
2022/07/08 09:48:32;;;;;;;;;;;26.40;63.60;;;;;;5083682;27;20735;-58
2022/07/08 09:51:00;;;;;;;2.33;2.13;;;26.40;64.50;;;;;;5082261;27;19915;-58
2022/07/08 09:53:28;;;;;;;2.70;2.50;;;26.40;64.00;;;;;;5081309;28;20023;-58
2022/07/08 09:55:56;;;;;;;2.65;2.45;;;26.40;63.90;;;;;;5076198;28;20036;-59
2022/07/08 09:58:27;;;;;;;2.53;2.22;;;26.40;64.10;;;;;;5081976;27;20027;-59
2022/07/08 10:00:55;;;;;;;2.53;2.33;;;26.40;64.20;;;;;;5080366;28;20035;-59
2022/07/08 10:03:22;;;;;;;2.10;2.00;;;26.40;64.30;;;;;;5073583;27;21880;-59
2022/07/08 10:05:48;;;;;;;2.70;2.50;;;26.40;64.30;;;;;;5080055;28;20032;-59
2022/07/08 10:08:15;;;;;;;2.53;2.10;;;26.30;64.50;;;;;;5079578;28;20108;-59
2022/07/08 10:10:43;;;;;;;2.50;2.30;;;26.40;64.50;;;;;;5086997;27;20035;-59
2022/07/08 10:13:09;;;;;;;2.90;2.70;;;26.30;64.60;;;;;;5082881;27;20050;-59
2022/07/08 10:15:36;;;;;;;3.20;2.90;;;26.30;64.90;;;;;;5084556;27;20063;-58
2022/07/08 10:18:22;;;;;;;2.85;2.65;;;26.30;64.90;;;;;;5084191;27;20040;-59
2022/07/08 10:20:55;;;;;;;2.90;2.60;;;26.30;64.90;;;;;;5084004;27;20515;-59
2022/07/08 10:23:28;;;;;;;3.13;2.83;;;26.40;65.60;;;;;;5091857;27;20122;-59
2022/07/08 10:25:59;;;;;;;3.17;2.88;;;26.30;65.30;;;;;;5081733;27;20138;-59
2022/07/08 10:28:44;;;;;;;3.05;2.65;;;26.40;65.20;;;;;;5076267;27;20043;-59
2022/07/08 10:31:29;;;;;;;2.70;2.50;;;26.40;65.20;;;;;;5081712;27;20118;-59
2022/07/08 10:34:02;;;;;;;2.70;2.50;;;26.40;65.30;;;;;;5078782;27;20088;-59
2022/07/08 10:36:27;;;;;;;3.88;2.92;;;26.40;65.30;;;;;;5089825;27;20023;-59
2022/07/08 10:38:56;;;;;;;2.97;2.67;;;26.40;65.00;;;;;;5082240;27;20101;-59
2022/07/08 10:41:26;;;;;;;2.83;2.60;;;26.50;64.90;;;;;;5084664;27;20061;-58
2022/07/08 10:44:01;;;;;;;2.88;2.67;;;26.50;64.70;;;;;;5082786;27;20159;-59
2022/07/08 10:46:27;;;;;;;3.25;2.95;;;26.50;64.80;;;;;;5078591;27;20074;-59
2022/07/08 10:48:58;;;;;;;4.00;3.03;;;26.50;65.10;;;;;;5083248;27;20652;-59
2022/07/08 10:51:29;;;;;;;;;;;26.50;65.10;;;;;;5084624;27;20432;-57
2022/07/08 10:53:59;;;;;;;3.45;2.75;;;26.50;65.30;;;;;;5076480;27;19926;-60
2022/07/08 10:56:50;;;;;;;2.83;2.63;;;26.60;65.30;;;;;;5084688;27;20020;-59
2022/07/08 10:59:27;;;;;;;3.22;2.75;;;26.60;64.90;;;;;;5063526;27;20321;-59
2022/07/08 11:02:11;;;;;;;4.43;3.10;;;26.60;64.90;;;;;;5079268;27;20035;-58
2022/07/08 11:04:42;;;;;;;2.58;2.38;;;26.60;65.00;;;;;;5082624;28;20763;-60
2022/07/08 11:09:44;;;;;;;3.30;3.00;;;26.80;64.90;;;;;;5079603;27;20050;-59
2022/07/08 11:12:14;;;;;;;3.63;3.08;;;26.80;64.70;;;;;;5083064;27;20036;-59
2022/07/08 11:14:49;;;;;;;3.80;3.40;;;26.80;64.70;;;;;;5085145;27;20023;-59
2022/07/08 11:17:26;;;;;;;3.30;3.00;;;26.90;64.60;;;;;;5083021;27;20024;-59
2022/07/08 11:19:53;;;;;;;4.38;2.80;;;26.90;64.80;;;;;;5071196;27;20035;-59
2022/07/08 11:22:20;;;;;;;3.75;2.80;;;27.00;64.70;;;;;;5079347;27;20019;-59
2022/07/08 11:24:47;;;;;;;2.75;2.55;;;27.00;64.80;;;;;;5082802;27;20429;-59
2022/07/08 11:27:13;;;;;;;2.70;2.50;;;27.10;64.80;;;;;;5076957;27;20059;-60
2022/07/08 11:29:47;;;;;;;3.05;2.75;;;27.20;64.70;;;;;;5076499;27;20146;-59
2022/07/08 11:32:13;;;;;;;2.75;2.55;;;27.30;64.80;;;;;;5079491;27;20035;-59
2022/07/08 11:34:39;;;;;;;3.67;2.70;;;27.40;64.50;;;;;;5083121;27;20102;-59
2022/07/08 11:37:05;;;;;;;4.00;3.25;;;27.40;64.40;;;;;;5081822;27;20933;-59
2022/07/08 11:39:31;;;;;;;3.50;3.13;;;27.40;64.50;;;;;;5081361;27;20016;-59
2022/07/08 11:41:56;;;;;;;3.30;2.92;;;27.40;64.50;;;;;;5069558;27;20059;-59
2022/07/08 11:44:23;;;;;;;3.30;2.90;;;27.50;64.60;;;;;;5084826;27;20491;-60
2022/07/08 11:46:52;;;;;;;2.80;2.60;;;27.40;64.30;;;;;;5080461;27;20027;-59
2022/07/08 11:49:20;;;;;;;3.30;3.00;;;27.50;64.30;;;;;;5086219;27;20056;-59
2022/07/08 11:51:50;;;;;;;3.03;2.72;;;27.50;64.10;;;;;;5086163;27;20359;-59
2022/07/08 11:54:19;;;;;;;3.92;3.10;;;27.50;64.20;;;;;;5075148;27;20040;-59
2022/07/08 11:56:45;;;;;;;2.92;2.67;;;27.50;64.20;;;;;;5068409;28;20410;-58
2022/07/08 11:59:11;;;;;;;3.92;3.33;;;27.60;64.10;;;;;;5076603;27;20019;-59
2022/07/08 12:01:38;;;;;;;3.42;3.10;;;27.60;64.20;;;;;;5069672;28;20093;-59
2022/07/08 12:04:07;;;;;;;3.45;3.15;;;27.60;64.20;;;;;;5074812;28;20751;-59
2022/07/08 12:06:34;;;;;;;4.20;3.58;;;27.60;64.20;;;;;;5064820;27;20139;-59
2022/07/08 12:09:10;;;;;;;3.17;2.88;;;27.60;64.10;;;;;;5071654;27;20046;-59
2022/07/08 12:11:45;;;;;;;3.60;3.30;;;27.60;64.30;;;;;;5067185;27;20063;-58
2022/07/08 12:14:11;;;;;;;3.60;3.30;;;27.50;64.20;;;;;;5081961;28;20119;-59
2022/07/08 12:16:44;;;;;;;3.20;2.97;;;27.50;64.40;;;;;;5077791;27;20109;-59
2022/07/08 12:19:35;;;;;;;3.95;3.47;;;27.50;64.50;;;;;;5085607;27;20106;-59
2022/07/08 12:22:05;;;;;;;3.45;2.95;;;27.50;64.90;;;;;;5085931;27;20028;-60
2022/07/08 12:24:38;;;;;;;3.33;3.00;;;27.40;64.90;;;;;;5086466;27;20068;-59
2022/07/08 12:27:09;;;;;;;3.40;3.10;;;27.40;65.10;;;;;;5081309;28;20028;-59
2022/07/08 12:29:37;;;;;;;3.80;3.08;;;27.40;65.10;;;;;;5082334;28;20028;-59
2022/07/08 12:32:04;;;;;;;3.40;3.10;;;27.40;65.20;;;;;;5078797;28;20043;-60
2022/07/08 12:34:30;;;;;;;4.25;3.47;;;27.40;65.30;;;;;;5070372;28;20047;-59
2022/07/08 12:37:14;;;;;;;3.53;3.10;;;27.40;65.40;;;;;;5079697;28;20775;-59
2022/07/08 12:39:40;;;;;;;3.20;2.90;;;27.40;65.70;;;;;;5082795;28;20082;-59
2022/07/08 12:42:06;;;;;;;3.22;2.92;;;27.40;65.70;;;;;;5080806;28;20036;-59
2022/07/08 12:44:36;;;;;;;2.90;2.60;;;27.40;65.40;;;;;;5084420;28;20043;-59
2022/07/08 12:47:14;;;;;;;3.30;3.00;;;27.40;65.60;;;;;;5078591;28;20028;-59
2022/07/08 12:49:47;;;;;;;3.90;2.90;;;27.40;65.80;;;;;;5084266;28;20098;-59
2022/07/08 12:52:14;;;;;;;4.32;2.97;;;27.40;65.60;;;;;;5078059;28;20051;-60
2022/07/08 12:54:43;;;;;;;3.47;3.10;;;27.40;65.80;;;;;;5082266;28;20042;-59
2022/07/08 12:57:09;;;;;;;3.50;3.20;;;27.40;65.70;;;;;;5077091;28;20023;-59
2022/07/08 12:59:35;;;;;;;3.13;2.72;;;27.40;65.80;;;;;;5077564;28;20032;-60
2022/07/08 13:02:01;;;;;;;3.50;3.15;;;27.50;65.70;;;;;;5078763;28;20047;-60